Tyler Pounds Regional Airport
KTYR : now visible

Airfield :











YOU CAN JOIN US ON...

 
LOGIN :

Register | Disclaimer

   EN    FR    IT 

 









Legend :    VFR   Marginal VFR   IFR   Intensive IFR   Very Intensive IFR
Visi :
Ceiling :
>= 8 km
>= 3000ft
5 to 8 km
1000 to 3000 ft
1500m to 5 km
500 to 1000 ft
800 to 1500m
200 to 500 ft
< 800m
< 200 ft
Symbols :   Thunderstorms  Fog  Heavy snow  Heavy precipitations  Wind > 20 kt






- Airport Elevation : 544 ft
- IATA code : TYR


KTYR - Tyler Pounds Regional

CURRENT METAR :
  • 250553Z AUTO 17006KT 10SM CLR 28/23 A2993 RMK AO2 SLP124 T02780233 10350 20278 403670244 53007

EXPIRED METARs :
  • 250453Z AUTO 14005KT 10SM CLR 28/23 A2992 RMK AO2 SLP120 T02830233
  • 250353Z AUTO 15005KT 10SM CLR 29/23 A2991 RMK AO2 SLP119 T02890233
  • 250253Z AUTO 15004KT 10SM CLR 29/23 A2990 RMK AO2 SLP117 T02940233 53005
  • 250153Z 17004KT 10SM CLR 31/23 A2989 RMK AO2 SLP114 T03110228

TAF KTYR
Valid from the 25 at 06:00 until the 26 at 06:00 UTC


250520Z 2506/2606 VRB04KT P6SM SKC
FM251700 19009KT P6SM SCT050
FM260300 VRB04KT P6SM SKC
KZFW FIR / North America



MET'MAP, your aeronautical weather chart ! - Copyright ORBIFLY December 2007 - Disclaimer

ORBIFLY MET'MAP TEAM :

Programming & Development : Alexandra Zaïnal
Original concept : Baudouin d'Aumeries
Technical & hardware support : Manuel Goepfert
Assistance : Marc-Olivier Méhu




SOURCES & CREDITS :

   NOAA       Earth
Advisory